sensor_id;sensor_type;location;lat;lon;timestamp;temperature;humidity
3998;DHT22;61314;53.444;9.902;2023-03-14T00:01:16;10.50;99.90
3998;DHT22;61314;53.444;9.902;2023-03-14T00:03:43;10.50;99.90
3998;DHT22;61314;53.444;9.902;2023-03-14T00:06:11;10.50;99.90
3998;DHT22;61314;53.444;9.902;2023-03-14T00:08:37;10.50;99.90
3998;DHT22;61314;53.444;9.902;2023-03-14T00:11:13;10.60;99.90
3998;DHT22;61314;53.444;9.902;2023-03-14T00:13:40;10.40;99.90
3998;DHT22;61314;53.444;9.902;2023-03-14T00:16:10;10.40;99.90
3998;DHT22;61314;53.444;9.902;2023-03-14T00:18:38;10.40;99.90
3998;DHT22;61314;53.444;9.902;2023-03-14T00:21:06;10.40;99.90
3998;DHT22;61314;53.444;9.902;2023-03-14T00:23:34;10.40;99.90
3998;DHT22;61314;53.444;9.902;2023-03-14T00:26:10;10.30;99.90
3998;DHT22;61314;53.444;9.902;2023-03-14T00:28:41;10.40;99.90
3998;DHT22;61314;53.444;9.902;2023-03-14T00:31:10;10.30;99.90
3998;DHT22;61314;53.444;9.902;2023-03-14T00:33:38;10.30;99.90
3998;DHT22;61314;53.444;9.902;2023-03-14T00:36:08;10.30;99.90
3998;DHT22;61314;53.444;9.902;2023-03-14T00:38:35;10.30;99.90
3998;DHT22;61314;53.444;9.902;2023-03-14T00:41:04;10.30;99.90
3998;DHT22;61314;53.444;9.902;2023-03-14T00:43:33;10.30;99.90
3998;DHT22;61314;53.444;9.902;2023-03-14T00:46:00;10.30;99.90
3998;DHT22;61314;53.444;9.902;2023-03-14T00:48:27;10.30;99.90
3998;DHT22;61314;53.444;9.902;2023-03-14T00:50:54;10.20;99.90
3998;DHT22;61314;53.444;9.902;2023-03-14T00:53:20;10.20;99.90
3998;DHT22;61314;53.444;9.902;2023-03-14T00:55:47;10.20;99.90
3998;DHT22;61314;53.444;9.902;2023-03-14T00:58:16;10.30;99.90
3998;DHT22;61314;53.444;9.902;2023-03-14T01:00:44;10.20;99.90
3998;DHT22;61314;53.444;9.902;2023-03-14T01:03:11;10.20;99.90
3998;DHT22;61314;53.444;9.902;2023-03-14T01:05:39;10.20;99.90
3998;DHT22;61314;53.444;9.902;2023-03-14T01:08:06;10.10;99.90
3998;DHT22;61314;53.444;9.902;2023-03-14T01:10:39;10.20;99.90
3998;DHT22;61314;53.444;9.902;2023-03-14T01:13:06;10.20;99.90
3998;DHT22;61314;53.444;9.902;2023-03-14T01:15:36;10.10;99.90
3998;DHT22;61314;53.444;9.902;2023-03-14T01:18:04;10.20;99.90
3998;DHT22;61314;53.444;9.902;2023-03-14T01:20:30;10.20;99.90
3998;DHT22;61314;53.444;9.902;2023-03-14T01:22:57;10.20;99.90
3998;DHT22;61314;53.444;9.902;2023-03-14T01:25:24;10.10;99.90
3998;DHT22;61314;53.444;9.902;2023-03-14T01:27:50;10.10;99.90
3998;DHT22;61314;53.444;9.902;2023-03-14T01:30:17;10.20;99.90
3998;DHT22;61314;53.444;9.902;2023-03-14T01:32:43;10.20;99.90
3998;DHT22;61314;53.444;9.902;2023-03-14T01:35:10;10.10;99.90
3998;DHT22;61314;53.444;9.902;2023-03-14T01:37:36;10.20;99.90
3998;DHT22;61314;53.444;9.902;2023-03-14T01:40:03;10.10;99.90
3998;DHT22;61314;53.444;9.902;2023-03-14T01:42:32;10.20;99.90
3998;DHT22;61314;53.444;9.902;2023-03-14T01:45:00;10.20;99.90
3998;DHT22;61314;53.444;9.902;2023-03-14T01:47:27;10.10;99.90
3998;DHT22;61314;53.444;9.902;2023-03-14T01:49:58;10.10;99.90
3998;DHT22;61314;53.444;9.902;2023-03-14T01:52:46;10.10;99.90
3998;DHT22;61314;53.444;9.902;2023-03-14T01:55:22;10.10;99.90
3998;DHT22;61314;53.444;9.902;2023-03-14T01:58:08;10.10;99.90
3998;DHT22;61314;53.444;9.902;2023-03-14T02:00:35;10.10;99.90
3998;DHT22;61314;53.444;9.902;2023-03-14T02:03:06;10.00;99.90
3998;DHT22;61314;53.444;9.902;2023-03-14T10:14:31;9.30;99.90
3998;DHT22;61314;53.444;9.902;2023-03-14T11:23:14;6.50;99.90
